Time;durP1;ratioP1;P1;durP2;ratioP2;P2;SDS_P1;SDS_P2;PMS_P1;PMS_P2;Temp;Humidity;BMP_temperature;BMP_pressure;BME280_temperature;BME280_humidity;BME280_pressure;Samples;Min_cycle;Max_cycle;Signal;HPM_P1;HPM_P2
2023/06/18 00:01:03;;;;;;;11.25;6.63;;;;;;;;;;5053538;28;20028;-69
2023/06/18 00:03:48;;;;;;;11.15;7.40;;;;;;;;;;5047942;28;20032;-68
2023/06/18 00:06:34;;;;;;;10.50;6.65;;;;;;;;;;5052813;28;20103;-69
2023/06/18 00:09:19;;;;;;;10.02;6.63;;;;;;;;;;5052242;28;20060;-68
2023/06/18 00:12:04;;;;;;;10.70;6.53;;;;;;;;;;5051181;28;20055;-69
2023/06/18 00:14:49;;;;;;;12.32;6.25;;;;;;;;;;5051144;28;20115;-69
2023/06/18 00:17:35;;;;;;;9.50;6.45;;;;;;;;;;5046450;28;20074;-68
2023/06/18 00:20:20;;;;;;;9.85;6.22;;;;;;;;;;5053605;28;20020;-66
2023/06/18 00:23:06;;;;;;;13.18;7.15;;;;;;;;;;5050845;28;20036;-68
2023/06/18 00:25:51;;;;;;;11.73;6.38;;;;;;;;;;5050892;28;20052;-68
2023/06/18 00:28:36;;;;;;;12.63;7.38;;;;;;;;;;5062640;28;20440;-68
2023/06/18 00:31:21;;;;;;;12.73;6.93;;;;;;;;;;5044402;28;20379;-68
2023/06/18 00:34:06;;;;;;;11.93;6.72;;;;;;;;;;5043309;28;20025;-68
2023/06/18 00:36:54;;;;;;;14.60;7.28;;;;;;;;;;5045231;28;20036;-64
2023/06/18 00:39:39;;;;;;;10.52;6.65;;;;;;;;;;5047068;28;20044;-65
2023/06/18 00:42:24;;;;;;;12.90;8.02;;;;;;;;;;5051454;28;20475;-64
2023/06/18 00:45:12;;;;;;;12.30;6.35;;;;;;;;;;5052746;28;20649;-66
2023/06/18 00:47:57;;;;;;;11.48;6.97;;;;;;;;;;5053404;28;20094;-66
2023/06/18 00:50:42;;;;;;;9.68;6.38;;;;;;;;;;5051567;28;20505;-68
2023/06/18 00:53:28;;;;;;;12.00;6.72;;;;;;;;;;5051253;28;20028;-74
2023/06/18 00:56:13;;;;;;;11.98;6.53;;;;;;;;;;5049177;28;20036;-69
2023/06/18 00:58:59;;;;;;;12.02;6.93;;;;;;;;;;5067166;28;20379;-67
2023/06/18 01:01:44;;;;;;;9.82;5.88;;;;;;;;;;5051989;28;20033;-67
2023/06/18 01:04:32;;;;;;;10.73;7.05;;;;;;;;;;5052140;28;20037;-67
2023/06/18 01:07:17;;;;;;;10.90;6.47;;;;;;;;;;5051380;28;20028;-69
2023/06/18 01:10:03;;;;;;;10.55;6.18;;;;;;;;;;5039866;28;20130;-69
2023/06/18 01:12:48;;;;;;;9.25;6.50;;;;;;;;;;5043675;28;20033;-74
2023/06/18 01:15:33;;;;;;;12.90;6.13;;;;;;;;;;5053732;28;20040;-75
2023/06/18 01:18:21;;;;;;;9.85;6.80;;;;;;;;;;5054776;28;20040;-72
2023/06/18 01:21:09;;;;;;;12.07;6.85;;;;;;;;;;5052049;28;20051;-71
2023/06/18 01:24:01;;;;;;;8.57;5.28;;;;;;;;;;5050482;28;20036;-74
2023/06/18 01:26:47;;;;;;;11.20;6.20;;;;;;;;;;5047396;28;20032;-74
2023/06/18 01:29:34;;;;;;;11.02;6.95;;;;;;;;;;5042226;28;20078;-72
2023/06/18 01:32:19;;;;;;;9.88;5.93;;;;;;;;;;5044467;28;20077;-75
2023/06/18 01:35:05;;;;;;;10.55;6.75;;;;;;;;;;5052824;28;20120;-70
2023/06/18 01:37:57;;;;;;;9.55;5.93;;;;;;;;;;5037513;28;20782;-70
2023/06/18 01:40:57;;;;;;;10.68;6.82;;;;;;;;;;5052134;28;20472;-69
2023/06/18 01:43:46;;;;;;;9.15;5.60;;;;;;;;;;5046024;28;20047;-69
2023/06/18 01:46:32;;;;;;;9.48;6.75;;;;;;;;;;5028870;28;20041;-71
2023/06/18 01:49:18;;;;;;;10.68;6.90;;;;;;;;;;5060212;28;20169;-68
2023/06/18 01:52:03;;;;;;;10.07;5.88;;;;;;;;;;5043380;28;20036;-70
2023/06/18 01:54:49;;;;;;;10.77;6.47;;;;;;;;;;5053018;28;20463;-69
2023/06/18 01:57:34;;;;;;;8.85;6.22;;;;;;;;;;5057416;28;20143;-69
2023/06/18 02:00:19;;;;;;;10.20;5.90;;;;;;;;;;5042128;28;20040;-69
2023/06/18 02:03:05;;;;;;;8.57;5.60;;;;;;;;;;5030798;28;20135;-70
2023/06/18 02:05:50;;;;;;;9.40;6.05;;;;;;;;;;5042038;28;20113;-69
2023/06/18 02:08:35;;;;;;;9.40;6.82;;;;;;;;;;5068469;28;20445;-70
2023/06/18 02:11:20;;;;;;;12.80;7.22;;;;;;;;;;5059280;28;20043;-68
2023/06/18 02:14:06;;;;;;;10.50;6.68;;;;;;;;;;5056329;28;20036;-69
2023/06/18 02:16:51;;;;;;;9.40;5.82;;;;;;;;;;5056941;28;20128;-69
2023/06/18 02:19:36;;;;;;;8.77;5.68;;;;;;;;;;5049857;28;20080;-70
2023/06/18 02:22:22;;;;;;;10.30;6.10;;;;;;;;;;5051047;28;20035;-71
2023/06/18 02:25:08;;;;;;;10.45;6.40;;;;;;;;;;5054952;28;20040;-67
2023/06/18 02:27:53;;;;;;;8.77;6.00;;;;;;;;;;5058961;28;20033;-71
2023/06/18 02:30:38;;;;;;;11.40;7.13;;;;;;;;;;5059807;28;20106;-69
2023/06/18 02:33:24;;;;;;;9.15;6.13;;;;;;;;;;5055526;28;20029;-70
2023/06/18 02:36:10;;;;;;;10.20;5.97;;;;;;;;;;5060753;28;20035;-70
2023/06/18 02:38:55;;;;;;;10.50;5.82;;;;;;;;;;5053079;28;20032;-72
2023/06/18 02:41:40;;;;;;;9.85;6.00;;;;;;;;;;5056458;28;20041;-70
2023/06/18 02:44:28;;;;;;;10.05;5.88;;;;;;;;;;5054972;28;20468;-73
2023/06/18 02:47:13;;;;;;;12.65;6.13;;;;;;;;;;5055742;28;20040;-69
2023/06/18 02:49:58;;;;;;;9.02;6.00;;;;;;;;;;5056586;28;20044;-69
2023/06/18 02:52:45;;;;;;;9.90;6.30;;;;;;;;;;5049685;28;20037;-69
2023/06/18 02:55:31;;;;;;;11.55;6.20;;;;;;;;;;5055022;28;20387;-68
2023/06/18 02:58:17;;;;;;;9.15;5.72;;;;;;;;;;5051789;28;20476;-69
2023/06/18 03:01:03;;;;;;;10.00;6.80;;;;;;;;;;5055891;28;20036;-69
2023/06/18 03:03:48;;;;;;;9.13;6.20;;;;;;;;;;5046991;28;20036;-69
2023/06/18 03:06:33;;;;;;;10.43;5.78;;;;;;;;;;5055368;28;20430;-72
2023/06/18 03:09:19;;;;;;;10.02;6.07;;;;;;;;;;5040028;28;20081;-73
2023/06/18 03:12:04;;;;;;;9.45;6.28;;;;;;;;;;5055247;28;20449;-73
2023/06/18 03:14:50;;;;;;;9.60;6.18;;;;;;;;;;5053284;28;20081;-71
2023/06/18 03:17:35;;;;;;;9.07;5.57;;;;;;;;;;5052979;28;20032;-72
2023/06/18 03:20:20;;;;;;;10.73;6.50;;;;;;;;;;5048500;28;20037;-71
2023/06/18 03:23:05;;;;;;;9.30;6.05;;;;;;;;;;5055201;28;20040;-70
2023/06/18 03:25:50;;;;;;;9.00;6.10;;;;;;;;;;5053168;28;20467;-70
2023/06/18 03:28:36;;;;;;;8.65;5.93;;;;;;;;;;5063682;28;20059;-70
2023/06/18 03:31:22;;;;;;;10.18;6.00;;;;;;;;;;5043224;28;20064;-74
2023/06/18 03:34:08;;;;;;;9.30;6.75;;;;;;;;;;5053190;28;20103;-73
2023/06/18 03:36:53;;;;;;;11.38;6.50;;;;;;;;;;5043031;28;20033;-70
2023/06/18 03:39:38;;;;;;;9.07;6.47;;;;;;;;;;5042157;28;20038;-68
2023/06/18 03:42:24;;;;;;;8.07;5.78;;;;;;;;;;5043063;28;20037;-66
2023/06/18 03:45:09;;;;;;;10.52;6.70;;;;;;;;;;5060599;28;20093;-66
2023/06/18 03:47:55;;;;;;;13.52;7.45;;;;;;;;;;5052196;28;20033;-66
2023/06/18 03:50:40;;;;;;;9.07;6.00;;;;;;;;;;5046674;28;20593;-65
2023/06/18 03:53:26;;;;;;;10.98;6.47;;;;;;;;;;5051674;28;20044;-67
2023/06/18 03:56:11;;;;;;;12.05;6.32;;;;;;;;;;5051631;28;20055;-66
2023/06/18 03:58:57;;;;;;;9.88;6.18;;;;;;;;;;5052158;28;20078;-71
2023/06/18 04:01:43;;;;;;;10.82;6.57;;;;;;;;;;5054261;28;20079;-71
2023/06/18 04:04:28;;;;;;;11.00;6.43;;;;;;;;;;5045781;28;20136;-71
2023/06/18 04:07:13;;;;;;;9.23;5.28;;;;;;;;;;5054074;28;20037;-71
2023/06/18 04:09:58;;;;;;;12.95;7.60;;;;;;;;;;5054405;28;20379;-69
2023/06/18 04:12:43;;;;;;;9.95;6.20;;;;;;;;;;5048616;28;20345;-69
2023/06/18 04:15:29;;;;;;;8.88;6.28;;;;;;;;;;5051675;28;20036;-71
2023/06/18 04:18:14;;;;;;;11.00;6.60;;;;;;;;;;5053470;28;20040;-68
2023/06/18 04:20:59;;;;;;;10.38;6.20;;;;;;;;;;5040050;28;20028;-69
2023/06/18 04:23:45;;;;;;;9.65;5.95;;;;;;;;;;5054053;28;20052;-70
2023/06/18 04:26:30;;;;;;;12.38;7.03;;;;;;;;;;5045567;28;20472;-68
2023/06/18 04:29:15;;;;;;;8.35;5.32;;;;;;;;;;5068099;28;20040;-69
2023/06/18 04:32:01;;;;;;;12.48;5.82;;;;;;;;;;5051085;28;20039;-68
2023/06/18 04:34:46;;;;;;;9.63;6.20;;;;;;;;;;5047239;28;20039;-70
2023/06/18 04:37:31;;;;;;;9.02;6.38;;;;;;;;;;5046318;28;20029;-69
2023/06/18 04:40:18;;;;;;;9.18;6.15;;;;;;;;;;5058768;28;20059;-69
2023/06/18 04:43:03;;;;;;;9.30;6.20;;;;;;;;;;5050734;28;20188;-70
2023/06/18 04:45:48;;;;;;;8.80;5.68;;;;;;;;;;5050127;28;20036;-70
2023/06/18 04:48:34;;;;;;;9.57;6.03;;;;;;;;;;5063855;28;20127;-71
2023/06/18 04:51:20;;;;;;;10.82;7.43;;;;;;;;;;5054825;28;20032;-69
2023/06/18 04:54:05;;;;;;;9.95;6.25;;;;;;;;;;5045426;28;20478;-68
2023/06/18 04:56:50;;;;;;;10.30;6.05;;;;;;;;;;5051225;28;20032;-65
2023/06/18 04:59:36;;;;;;;9.10;6.15;;;;;;;;;;5054219;28;20043;-66
2023/06/18 05:02:22;;;;;;;10.50;6.07;;;;;;;;;;5050540;28;20116;-66
2023/06/18 05:05:08;;;;;;;10.18;5.82;;;;;;;;;;5051107;28;20485;-66
2023/06/18 05:07:53;;;;;;;8.20;5.38;;;;;;;;;;5053132;28;20020;-67
2023/06/18 05:10:38;;;;;;;10.90;6.60;;;;;;;;;;5052994;28;20032;-68
2023/06/18 05:13:23;;;;;;;10.25;6.55;;;;;;;;;;5044582;28;20426;-73
2023/06/18 05:16:09;;;;;;;9.65;6.07;;;;;;;;;;5053945;28;20052;-69
2023/06/18 05:18:54;;;;;;;11.38;6.30;;;;;;;;;;5042423;28;20024;-68
2023/06/18 05:21:39;;;;;;;10.63;6.80;;;;;;;;;;5061617;28;20075;-67
2023/06/18 05:24:25;;;;;;;9.45;6.28;;;;;;;;;;5040082;28;20477;-68
2023/06/18 05:27:10;;;;;;;8.18;5.32;;;;;;;;;;5053017;28;20098;-67
2023/06/18 05:29:55;;;;;;;10.02;6.40;;;;;;;;;;5051124;28;20034;-73
2023/06/18 05:32:41;;;;;;;10.23;6.45;;;;;;;;;;5057559;28;20032;-71
2023/06/18 05:35:26;;;;;;;8.13;5.28;;;;;;;;;;5057294;28;20036;-75
2023/06/18 05:38:11;;;;;;;8.30;5.70;;;;;;;;;;5048601;28;20043;-72
2023/06/18 05:40:56;;;;;;;10.10;5.70;;;;;;;;;;5056924;28;20082;-71
2023/06/18 05:43:41;;;;;;;10.00;6.70;;;;;;;;;;5056829;28;20041;-72
2023/06/18 05:46:27;;;;;;;9.55;5.88;;;;;;;;;;5042910;28;20036;-70
2023/06/18 05:49:12;;;;;;;10.50;5.95;;;;;;;;;;5060687;28;20403;-70
2023/06/18 05:51:57;;;;;;;8.15;5.57;;;;;;;;;;5047531;28;20042;-74
2023/06/18 05:54:43;;;;;;;9.02;5.97;;;;;;;;;;5043441;28;20390;-74
2023/06/18 05:57:28;;;;;;;11.90;5.57;;;;;;;;;;5056046;28;20040;-73
2023/06/18 06:00:13;;;;;;;8.18;6.10;;;;;;;;;;5057306;28;20031;-74
2023/06/18 06:02:58;;;;;;;10.00;5.75;;;;;;;;;;5057067;28;20090;-72
2023/06/18 06:05:43;;;;;;;10.38;5.78;;;;;;;;;;5043826;28;20097;-70
2023/06/18 06:08:29;;;;;;;7.80;5.53;;;;;;;;;;5055677;28;20040;-68
2023/06/18 06:11:14;;;;;;;9.63;5.53;;;;;;;;;;5043465;28;20020;-66
2023/06/18 06:14:00;;;;;;;9.93;5.85;;;;;;;;;;5049356;28;20028;-66
2023/06/18 06:16:45;;;;;;;8.23;5.40;;;;;;;;;;5055723;28;20044;-66
2023/06/18 06:19:31;;;;;;;10.68;5.07;;;;;;;;;;5050769;28;20379;-65
2023/06/18 06:22:16;;;;;;;9.13;5.65;;;;;;;;;;5056402;28;20215;-65
2023/06/18 06:25:01;;;;;;;8.15;5.13;;;;;;;;;;5056335;28;20031;-70
2023/06/18 06:27:46;;;;;;;12.10;6.53;;;;;;;;;;5049163;28;20472;-67
2023/06/18 06:30:31;;;;;;;7.63;5.45;;;;;;;;;;5071932;28;20058;-66
2023/06/18 06:33:17;;;;;;;10.00;5.88;;;;;;;;;;5066670;28;20078;-67
2023/06/18 06:36:02;;;;;;;9.45;6.13;;;;;;;;;;5070322;28;20688;-67
2023/06/18 06:38:47;;;;;;;8.82;6.10;;;;;;;;;;5058074;28;20040;-66
2023/06/18 06:41:34;;;;;;;8.95;6.40;;;;;;;;;;5052272;28;20068;-68
2023/06/18 06:44:19;;;;;;;10.60;6.35;;;;;;;;;;5041692;28;20032;-68
2023/06/18 06:47:04;;;;;;;7.75;5.95;;;;;;;;;;5055395;28;20115;-66
2023/06/18 06:49:49;;;;;;;8.20;5.95;;;;;;;;;;5062545;28;20447;-67
2023/06/18 06:52:34;;;;;;;8.73;6.15;;;;;;;;;;5056369;28;20040;-66
2023/06/18 06:55:20;;;;;;;8.40;5.90;;;;;;;;;;5056447;28;20032;-66
2023/06/18 06:58:05;;;;;;;8.95;5.85;;;;;;;;;;5040796;28;20036;-67
2023/06/18 07:00:50;;;;;;;8.07;5.80;;;;;;;;;;5048038;28;20032;-70
2023/06/18 07:03:35;;;;;;;7.18;5.60;;;;;;;;;;5055580;28;20119;-70
2023/06/18 07:06:21;;;;;;;9.13;6.05;;;;;;;;;;5055272;28;20031;-73
2023/06/18 07:09:06;;;;;;;7.38;5.05;;;;;;;;;;5050696;28;20036;-74
2023/06/18 07:11:51;;;;;;;7.93;5.43;;;;;;;;;;5055454;28;20029;-73
2023/06/18 07:14:37;;;;;;;7.65;5.60;;;;;;;;;;5040639;28;20044;-75
2023/06/18 07:17:22;;;;;;;8.27;5.72;;;;;;;;;;5053358;28;20020;-74
2023/06/18 07:20:07;;;;;;;7.13;5.20;;;;;;;;;;5055481;28;20036;-71
2023/06/18 07:22:53;;;;;;;8.05;5.45;;;;;;;;;;5055108;28;20081;-72
2023/06/18 07:25:38;;;;;;;9.00;5.80;;;;;;;;;;5052651;28;20409;-72
2023/06/18 07:28:23;;;;;;;8.95;5.28;;;;;;;;;;5060811;28;20025;-73
2023/06/18 07:31:08;;;;;;;7.00;5.38;;;;;;;;;;5053825;28;20044;-72
2023/06/18 07:33:55;;;;;;;12.20;5.70;;;;;;;;;;5057461;28;20040;-73
2023/06/18 07:36:40;;;;;;;8.23;5.47;;;;;;;;;;5054391;28;20114;-72
2023/06/18 07:39:26;;;;;;;6.28;4.57;;;;;;;;;;5053286;28;20056;-72
2023/06/18 07:42:12;;;;;;;8.40;4.43;;;;;;;;;;5054857;28;20040;-71
2023/06/18 07:44:57;;;;;;;9.35;5.00;;;;;;;;;;5061403;28;20122;-70
2023/06/18 07:47:42;;;;;;;8.13;4.97;;;;;;;;;;5058151;28;20040;-68
2023/06/18 07:50:27;;;;;;;8.75;4.82;;;;;;;;;;5060489;28;20051;-70
2023/06/18 07:53:13;;;;;;;9.35;6.00;;;;;;;;;;5048821;28;20130;-70
2023/06/18 07:55:59;;;;;;;7.95;5.72;;;;;;;;;;5056036;28;20107;-69
2023/06/18 07:58:44;;;;;;;7.38;4.72;;;;;;;;;;5053250;28;20063;-73
2023/06/18 08:01:30;;;;;;;7.50;5.32;;;;;;;;;;5055079;28;20037;-71
2023/06/18 08:04:15;;;;;;;8.50;5.10;;;;;;;;;;5043693;28;20040;-73
2023/06/18 08:07:00;;;;;;;8.02;4.82;;;;;;;;;;5062700;28;20082;-74
2023/06/18 08:09:46;;;;;;;7.82;5.70;;;;;;;;;;5058243;28;20035;-74
2023/06/18 08:12:31;;;;;;;7.45;4.88;;;;;;;;;;5054302;28;20531;-73
2023/06/18 08:15:16;;;;;;;6.60;5.10;;;;;;;;;;5053686;28;20111;-69
2023/06/18 08:18:02;;;;;;;9.88;5.47;;;;;;;;;;5053482;28;20162;-67
2023/06/18 08:20:47;;;;;;;9.35;5.43;;;;;;;;;;5039114;28;20090;-67
2023/06/18 08:23:32;;;;;;;8.00;5.53;;;;;;;;;;5054411;28;20039;-68
2023/06/18 08:26:19;;;;;;;6.22;4.75;;;;;;;;;;5054155;28;20127;-68
2023/06/18 08:29:04;;;;;;;7.63;4.88;;;;;;;;;;5053004;28;20040;-65
2023/06/18 08:31:49;;;;;;;8.18;5.25;;;;;;;;;;5054310;28;20529;-65
2023/06/18 08:34:42;;;;;;;8.23;5.20;;;;;;;;;;5048095;28;20139;-67
2023/06/18 08:37:27;;;;;;;8.35;4.88;;;;;;;;;;5056796;28;20028;-66
2023/06/18 08:40:13;;;;;;;7.28;4.20;;;;;;;;;;5053401;28;20459;-65
2023/06/18 08:42:58;;;;;;;7.75;5.15;;;;;;;;;;5040118;28;20124;-65
2023/06/18 08:45:44;;;;;;;8.57;4.60;;;;;;;;;;5039726;28;20063;-65
2023/06/18 08:48:30;;;;;;;9.40;5.32;;;;;;;;;;5066050;28;20029;-65
2023/06/18 08:51:16;;;;;;;6.22;4.38;;;;;;;;;;5054793;28;20135;-68
2023/06/18 08:54:04;;;;;;;8.20;4.82;;;;;;;;;;5054348;28;20027;-72
2023/06/18 08:56:51;;;;;;;8.00;5.05;;;;;;;;;;5052450;28;20037;-68
2023/06/18 08:59:36;;;;;;;8.30;4.97;;;;;;;;;;5052499;28;20032;-68
2023/06/18 09:02:22;;;;;;;10.25;5.63;;;;;;;;;;5041422;28;20036;-70
2023/06/18 09:05:07;;;;;;;6.07;4.40;;;;;;;;;;5055210;28;20054;-69
2023/06/18 09:07:54;;;;;;;9.35;5.07;;;;;;;;;;5057407;28;20117;-70
2023/06/18 09:10:39;;;;;;;7.85;4.75;;;;;;;;;;5057540;28;20028;-71
2023/06/18 09:13:24;;;;;;;5.88;4.55;;;;;;;;;;5057562;28;20467;-71
2023/06/18 09:16:10;;;;;;;6.88;4.78;;;;;;;;;;5052622;28;20044;-70
2023/06/18 09:18:55;;;;;;;7.53;4.72;;;;;;;;;;5058141;28;20047;-71
2023/06/18 09:21:41;;;;;;;7.88;4.63;;;;;;;;;;5050988;28;20040;-69
2023/06/18 09:24:26;;;;;;;11.18;4.70;;;;;;;;;;5043697;28;20032;-70
2023/06/18 09:27:11;;;;;;;6.47;4.63;;;;;;;;;;5067658;28;20040;-68
2023/06/18 09:29:56;;;;;;;7.15;4.68;;;;;;;;;;5050960;28;20418;-69
2023/06/18 09:32:48;;;;;;;7.35;4.65;;;;;;;;;;5050294;28;20040;-69
2023/06/18 09:35:33;;;;;;;7.55;4.97;;;;;;;;;;5055369;28;20035;-72
2023/06/18 09:38:18;;;;;;;8.13;4.45;;;;;;;;;;5055420;28;20021;-70
2023/06/18 09:41:09;;;;;;;6.93;4.88;;;;;;;;;;5055570;28;20024;-69
2023/06/18 09:43:55;;;;;;;6.20;4.30;;;;;;;;;;5057974;28;20040;-70
2023/06/18 09:46:44;;;;;;;12.93;4.53;;;;;;;;;;5055504;28;20037;-71
2023/06/18 09:49:30;;;;;;;6.45;4.65;;;;;;;;;;5055960;28;20414;-67
2023/06/18 09:52:15;;;;;;;6.18;4.85;;;;;;;;;;5049560;28;20058;-68
2023/06/18 09:55:00;;;;;;;6.40;4.45;;;;;;;;;;5068685;28;20159;-65
2023/06/18 09:57:49;;;;;;;7.15;4.75;;;;;;;;;;5056891;28;20040;-67
2023/06/18 10:00:34;;;;;;;6.03;4.47;;;;;;;;;;5043520;28;20482;-69
2023/06/18 10:03:22;;;;;;;7.13;4.50;;;;;;;;;;5055926;28;20391;-67
2023/06/18 10:06:26;;;;;;;6.55;4.35;;;;;;;;;;5056817;28;20028;-70
2023/06/18 10:09:11;;;;;;;8.52;4.90;;;;;;;;;;5030825;28;20044;-68
2023/06/18 10:11:57;;;;;;;6.82;4.45;;;;;;;;;;5052428;28;20036;-68
2023/06/18 10:14:43;;;;;;;7.20;4.13;;;;;;;;;;5054030;28;20404;-72
2023/06/18 10:17:31;;;;;;;5.68;3.95;;;;;;;;;;5053910;28;20036;-68
2023/06/18 10:20:17;;;;;;;7.07;4.53;;;;;;;;;;5052530;28;20033;-68
2023/06/18 10:23:03;;;;;;;8.65;5.05;;;;;;;;;;5045914;28;20032;-67
2023/06/18 10:25:49;;;;;;;14.35;4.88;;;;;;;;;;5056452;28;20039;-73
2023/06/18 10:28:34;;;;;;;8.38;4.63;;;;;;;;;;5057931;28;20040;-73
2023/06/18 10:31:20;;;;;;;9.65;4.78;;;;;;;;;;5055272;28;20075;-67
2023/06/18 10:34:05;;;;;;;11.63;4.72;;;;;;;;;;5056447;28;20044;-69
2023/06/18 10:36:51;;;;;;;5.10;4.10;;;;;;;;;;5056306;28;20056;-68
2023/06/18 10:39:37;;;;;;;6.38;4.25;;;;;;;;;;5042578;28;20036;-68
2023/06/18 10:42:22;;;;;;;6.70;4.00;;;;;;;;;;5041491;28;20035;-70
2023/06/18 10:45:09;;;;;;;7.65;4.47;;;;;;;;;;5055897;28;20043;-73
2023/06/18 10:48:15;;;;;;;6.53;4.57;;;;;;;;;;5042019;28;20107;-73
2023/06/18 10:51:13;;;;;;;7.03;4.10;;;;;;;;;;5053220;28;20086;-73
2023/06/18 10:54:18;;;;;;;5.70;4.18;;;;;;;;;;5051053;28;20084;-73
2023/06/18 10:57:04;;;;;;;8.48;3.78;;;;;;;;;;5045927;28;20078;-72
2023/06/18 10:59:49;;;;;;;6.57;4.00;;;;;;;;;;5056459;28;20059;-73
2023/06/18 11:02:35;;;;;;;6.30;4.40;;;;;;;;;;5054700;28;20036;-71
2023/06/18 11:05:32;;;;;;;6.95;4.07;;;;;;;;;;5055193;28;20035;-70
2023/06/18 11:08:29;;;;;;;9.45;4.40;;;;;;;;;;5056183;28;20028;-69
2023/06/18 11:11:15;;;;;;;6.18;3.90;;;;;;;;;;5046301;28;20071;-69
2023/06/18 11:14:17;;;;;;;6.25;3.85;;;;;;;;;;5055332;28;20032;-71
2023/06/18 11:17:09;;;;;;;5.82;4.40;;;;;;;;;;5053702;28;20052;-73
2023/06/18 11:19:54;;;;;;;9.07;4.88;;;;;;;;;;5055641;28;20040;-69
2023/06/18 11:22:41;;;;;;;6.40;4.25;;;;;;;;;;5049445;28;20048;-67
2023/06/18 11:25:26;;;;;;;7.05;4.35;;;;;;;;;;5058575;28;20040;-66
2023/06/18 11:28:13;;;;;;;7.03;4.57;;;;;;;;;;5059789;28;20043;-68
2023/06/18 11:30:59;;;;;;;9.05;4.47;;;;;;;;;;5067702;28;20100;-68
2023/06/18 11:33:47;;;;;;;5.70;4.30;;;;;;;;;;5054506;28;20471;-70
2023/06/18 11:36:32;;;;;;;6.78;4.43;;;;;;;;;;5065980;28;20357;-67
2023/06/18 11:39:17;;;;;;;9.05;4.80;;;;;;;;;;5068972;28;20024;-71
2023/06/18 11:42:12;;;;;;;6.35;4.22;;;;;;;;;;5044936;28;20518;-69
2023/06/18 11:45:02;;;;;;;7.63;4.78;;;;;;;;;;5043446;28;20031;-70
2023/06/18 11:47:48;;;;;;;8.13;4.25;;;;;;;;;;5056422;28;20070;-67
2023/06/18 11:50:33;;;;;;;7.00;4.60;;;;;;;;;;5060341;28;20040;-68
2023/06/18 11:53:20;;;;;;;7.95;4.47;;;;;;;;;;5050898;28;20036;-67
2023/06/18 11:56:05;;;;;;;6.22;4.00;;;;;;;;;;5058667;28;20051;-74
2023/06/18 11:58:50;;;;;;;6.22;4.28;;;;;;;;;;5041823;28;20406;-71
2023/06/18 12:01:35;;;;;;;7.20;4.32;;;;;;;;;;5040999;28;20064;-71
2023/06/18 12:04:21;;;;;;;5.60;4.10;;;;;;;;;;5043908;28;20024;-70
2023/06/18 12:07:06;;;;;;;6.55;4.35;;;;;;;;;;5053983;28;20070;-71
2023/06/18 12:09:52;;;;;;;7.25;4.28;;;;;;;;;;5054830;28;20027;-70
2023/06/18 12:12:53;;;;;;;6.68;4.35;;;;;;;;;;5053101;28;20107;-74
2023/06/18 12:15:51;;;;;;;6.60;4.05;;;;;;;;;;5052526;28;20040;-68
2023/06/18 12:18:39;;;;;;;6.35;4.60;;;;;;;;;;5053323;28;20479;-67
2023/06/18 12:21:24;;;;;;;5.55;4.15;;;;;;;;;;5065435;28;20490;-67
2023/06/18 12:24:09;;;;;;;6.05;3.80;;;;;;;;;;5067365;28;20120;-67
2023/06/18 12:26:55;;;;;;;5.63;3.92;;;;;;;;;;5054216;28;20648;-66
2023/06/18 12:29:43;;;;;;;5.88;4.38;;;;;;;;;;5042073;28;20032;-66
2023/06/18 12:32:28;;;;;;;5.18;4.05;;;;;;;;;;5051191;28;20283;-73
2023/06/18 12:35:17;;;;;;;10.85;4.82;;;;;;;;;;5040198;28;20101;-71
2023/06/18 12:38:04;;;;;;;7.28;4.45;;;;;;;;;;5043485;28;20034;-72
2023/06/18 12:40:51;;;;;;;7.70;4.32;;;;;;;;;;5053356;28;20406;-71
2023/06/18 12:43:40;;;;;;;7.75;3.67;;;;;;;;;;5052108;28;20383;-70
2023/06/18 12:46:26;;;;;;;6.38;4.00;;;;;;;;;;5040798;28;20109;-70
2023/06/18 12:49:14;;;;;;;7.63;3.85;;;;;;;;;;5059148;28;20040;-70
2023/06/18 12:51:59;;;;;;;6.10;4.07;;;;;;;;;;5031179;28;20374;-66
2023/06/18 12:54:45;;;;;;;5.35;3.28;;;;;;;;;;5052070;28;20111;-71
2023/06/18 12:57:30;;;;;;;7.38;4.00;;;;;;;;;;5054067;28;20028;-71
2023/06/18 13:00:19;;;;;;;5.10;3.55;;;;;;;;;;5054230;28;20036;-71
2023/06/18 13:03:05;;;;;;;6.10;4.57;;;;;;;;;;5053027;28;20090;-71
2023/06/18 13:05:50;;;;;;;8.20;4.68;;;;;;;;;;5042225;28;20112;-69
2023/06/18 13:08:35;;;;;;;6.20;3.85;;;;;;;;;;5053238;28;20102;-69
2023/06/18 13:11:22;;;;;;;7.68;4.45;;;;;;;;;;5040217;28;20154;-69
2023/06/18 13:14:07;;;;;;;11.43;4.57;;;;;;;;;;5053283;28;20446;-69
2023/06/18 13:16:52;;;;;;;5.55;4.03;;;;;;;;;;5054026;28;20029;-69
2023/06/18 13:19:37;;;;;;;5.75;4.13;;;;;;;;;;5053033;28;20504;-72
2023/06/18 13:22:22;;;;;;;6.57;4.63;;;;;;;;;;5053399;28;20091;-70
2023/06/18 13:25:09;;;;;;;8.10;4.28;;;;;;;;;;5043949;28;20068;-70
2023/06/18 13:27:54;;;;;;;6.15;3.97;;;;;;;;;;5044256;28;20387;-70
2023/06/18 13:30:40;;;;;;;6.10;4.35;;;;;;;;;;5067506;28;20037;-65
2023/06/18 13:33:25;;;;;;;4.88;3.72;;;;;;;;;;5052496;28;20032;-67
2023/06/18 13:36:10;;;;;;;5.68;4.00;;;;;;;;;;5046930;28;20028;-67
2023/06/18 13:38:56;;;;;;;7.60;4.13;;;;;;;;;;5050303;28;20490;-66
2023/06/18 13:41:41;;;;;;;7.25;4.50;;;;;;;;;;5051530;28;20036;-68
2023/06/18 13:44:26;;;;;;;6.40;4.35;;;;;;;;;;5049095;28;20523;-67
2023/06/18 13:47:12;;;;;;;6.57;4.22;;;;;;;;;;5053660;28;20124;-70
2023/06/18 13:49:57;;;;;;;5.68;4.20;;;;;;;;;;5055028;28;20115;-75
2023/06/18 13:52:42;;;;;;;6.10;4.20;;;;;;;;;;5060509;28;20040;-75
2023/06/18 13:55:28;;;;;;;5.20;3.60;;;;;;;;;;5064343;28;20040;-73
2023/06/18 13:58:13;;;;;;;5.93;4.28;;;;;;;;;;5056241;28;20032;-72
2023/06/18 14:00:58;;;;;;;5.45;3.67;;;;;;;;;;5056875;28;20060;-73
2023/06/18 14:03:43;;;;;;;7.10;4.32;;;;;;;;;;5041557;28;20407;-73
2023/06/18 14:06:32;;;;;;;5.80;3.80;;;;;;;;;;5057022;28;20037;-66
2023/06/18 14:09:17;;;;;;;6.95;4.30;;;;;;;;;;5044656;28;20029;-73
2023/06/18 14:12:03;;;;;;;8.30;3.70;;;;;;;;;;5056767;28;20763;-73
2023/06/18 14:14:48;;;;;;;5.57;3.75;;;;;;;;;;5056380;28;20412;-75
2023/06/18 14:17:35;;;;;;;4.95;3.70;;;;;;;;;;5043546;28;20040;-74
2023/06/18 14:20:20;;;;;;;6.22;3.58;;;;;;;;;;5054184;28;20036;-72
2023/06/18 14:23:06;;;;;;;5.97;3.83;;;;;;;;;;5056872;28;20071;-71
2023/06/18 14:25:51;;;;;;;5.32;4.07;;;;;;;;;;5057065;28;20413;-70
2023/06/18 14:28:37;;;;;;;6.28;4.15;;;;;;;;;;5063824;28;20146;-69
2023/06/18 14:31:22;;;;;;;5.25;3.80;;;;;;;;;;5038625;28;20467;-71
2023/06/18 14:34:08;;;;;;;5.03;3.70;;;;;;;;;;5065108;28;20100;-70
2023/06/18 14:36:56;;;;;;;7.55;3.92;;;;;;;;;;5057057;28;20028;-71
2023/06/18 14:39:42;;;;;;;6.53;4.63;;;;;;;;;;5050954;28;20028;-70
2023/06/18 14:42:27;;;;;;;5.78;3.70;;;;;;;;;;5055460;28;20064;-72
2023/06/18 14:45:12;;;;;;;5.93;3.72;;;;;;;;;;5055177;28;20115;-71
2023/06/18 14:47:57;;;;;;;6.40;3.83;;;;;;;;;;5055942;28;20024;-70
2023/06/18 14:50:44;;;;;;;5.50;3.50;;;;;;;;;;5048880;28;20412;-71
2023/06/18 14:53:29;;;;;;;6.35;3.60;;;;;;;;;;5056388;28;20028;-70
2023/06/18 14:56:14;;;;;;;6.50;4.10;;;;;;;;;;5056233;28;20056;-71
2023/06/18 14:59:00;;;;;;;6.88;4.75;;;;;;;;;;5055684;28;20029;-70
2023/06/18 15:01:45;;;;;;;6.20;4.05;;;;;;;;;;5054356;28;20036;-71
2023/06/18 15:04:30;;;;;;;6.68;3.67;;;;;;;;;;5032105;28;20035;-73
2023/06/18 15:07:15;;;;;;;6.20;4.45;;;;;;;;;;5055726;28;20506;-75
2023/06/18 15:10:01;;;;;;;6.65;4.55;;;;;;;;;;5056086;28;20068;-77
2023/06/18 15:12:46;;;;;;;6.75;4.57;;;;;;;;;;5066627;28;20509;-74
2023/06/18 15:15:32;;;;;;;7.05;4.80;;;;;;;;;;5055697;28;20033;-72
2023/06/18 15:18:17;;;;;;;7.82;4.70;;;;;;;;;;5056091;28;20033;-68
2023/06/18 15:21:02;;;;;;;6.82;4.82;;;;;;;;;;5054056;28;20036;-73
2023/06/18 15:23:47;;;;;;;7.47;4.47;;;;;;;;;;5055029;28;20032;-70
2023/06/18 15:26:33;;;;;;;7.05;5.57;;;;;;;;;;5045817;28;20308;-71
2023/06/18 15:29:19;;;;;;;7.97;4.55;;;;;;;;;;5068302;28;20044;-70
2023/06/18 15:32:04;;;;;;;5.72;4.00;;;;;;;;;;5055121;28;20043;-70
2023/06/18 15:34:49;;;;;;;6.00;4.43;;;;;;;;;;5053425;28;20024;-70
2023/06/18 15:37:35;;;;;;;7.05;5.60;;;;;;;;;;5055104;28;20106;-70
2023/06/18 15:40:20;;;;;;;6.10;4.80;;;;;;;;;;5060057;28;20365;-68
2023/06/18 15:43:05;;;;;;;7.53;4.82;;;;;;;;;;5054345;28;20072;-69
2023/06/18 15:45:51;;;;;;;8.07;5.35;;;;;;;;;;5054545;28;20038;-68
2023/06/18 15:48:36;;;;;;;8.20;4.45;;;;;;;;;;5058847;28;20169;-68
2023/06/18 15:51:21;;;;;;;7.85;4.70;;;;;;;;;;5055057;28;20391;-66
2023/06/18 15:54:06;;;;;;;7.22;4.60;;;;;;;;;;5048254;28;20032;-67
2023/06/18 15:56:51;;;;;;;6.88;4.75;;;;;;;;;;5052630;28;20082;-71
2023/06/18 15:59:37;;;;;;;6.75;4.72;;;;;;;;;;5054350;28;20459;-71
2023/06/18 16:02:22;;;;;;;7.18;4.97;;;;;;;;;;5048989;28;20039;-70
2023/06/18 16:05:07;;;;;;;8.95;5.00;;;;;;;;;;5056776;28;20098;-71
2023/06/18 16:07:53;;;;;;;7.18;5.05;;;;;;;;;;5055281;28;20036;-70
2023/06/18 16:10:38;;;;;;;6.95;4.70;;;;;;;;;;5054292;28;20518;-70
2023/06/18 16:13:23;;;;;;;6.53;4.80;;;;;;;;;;5054886;28;20075;-66
2023/06/18 16:16:08;;;;;;;7.25;5.10;;;;;;;;;;5054319;28;20085;-67
2023/06/18 16:18:54;;;;;;;8.77;5.80;;;;;;;;;;5054248;28;20034;-70
2023/06/18 16:21:40;;;;;;;7.72;5.22;;;;;;;;;;5053719;28;20115;-67
2023/06/18 16:24:25;;;;;;;8.07;5.03;;;;;;;;;;5024057;28;20051;-68
2023/06/18 16:27:10;;;;;;;7.45;5.00;;;;;;;;;;5048223;28;20392;-67
2023/06/18 16:29:56;;;;;;;8.05;5.43;;;;;;;;;;5063875;28;20123;-69
2023/06/18 16:32:41;;;;;;;6.60;4.97;;;;;;;;;;5053873;28;20637;-67